Pagrindinis puslapis
METAR-TAF:

METAR-TAF

Oro uostai :

Kiurasao, Nyderlandų Antilai

platuma: 12-12N, ilguma: 068-58W, Aukštis: 9 m

Dabartinis oras

Ataskaita buvo paskelbta 30 minutes, ne 04:00 UTC
Vėjas 11 kt iš Rytų
Temperatūra 26°C
Drėgmė 65%
Slėgis 1013 hPa
Matomumas 10 km arba daugiau
Mažai debesys ne aukštis 2000 ft

METAR: TNCC 020400Z 09011KT 9999 FEW020 26/19 Q1013 NOSIG

Laikas: 00:30 (04:30 UTC)

Prognozė

Ataskaita buvo paskelbta 5 valandos ir 15 minutes, ne 23:15 UTC
Prognozė galioja nuo 02 metu 00 UTC su 02 metu 24 UTC
Vėjas 12 kt iš Rytų
Matomumas 10 km arba daugiau
Mažai debesys ne aukštis 2000 ft
Laikinai
nuo 02 metu 02 UTC su 02 metu 24 UTC
Su prošvaistėmis ne aukštis 1500 ft

TAF: TNCC 012315Z 0200/0224 09012KT 9999 FEW020 TEMPO 0202/0224 BKN015

Orai ataskaitas ir orų prognozės (METAR, TAF).

turimą stotys yra geltonos ir raudonos taškus žemėlapyje.

Perkelti pele per norėdami pamatyti stoties vardą.

Tada spustelėkite, norėdami matyti oro stebėjimo ir prognozės.

Norėdami pakeisti žemėlapį: spustelėkite ant žalios mygtukų su juodo kryžiaus žemyn,; žalią mygtuką su brūkšneliu, jei norite nutolinti; arba žalių rodyklių gretimoms žemėlapius.


METAR-TAF: